sensor_id;sensor_type;location;lat;lon;timestamp;P1;durP1;ratioP1;P2;durP2;ratioP2
69594;SDS011;56800;52.142;5.364;2023-07-31T00:01:35;8.55;;;2.05;;
69594;SDS011;56800;52.142;5.364;2023-07-31T00:04:02;7.55;;;1.80;;
69594;SDS011;56800;52.142;5.364;2023-07-31T00:06:29;12.57;;;2.50;;
69594;SDS011;56800;52.142;5.364;2023-07-31T00:08:56;5.03;;;2.40;;
69594;SDS011;56800;52.142;5.364;2023-07-31T00:11:22;12.35;;;2.17;;
69594;SDS011;56800;52.142;5.364;2023-07-31T00:13:49;7.63;;;2.25;;
69594;SDS011;56800;52.142;5.364;2023-07-31T00:16:16;5.28;;;2.20;;
69594;SDS011;56800;52.142;5.364;2023-07-31T00:18:43;4.20;;;2.30;;
69594;SDS011;56800;52.142;5.364;2023-07-31T00:21:09;2.97;;;2.03;;
69594;SDS011;56800;52.142;5.364;2023-07-31T00:23:36;5.22;;;2.20;;
69594;SDS011;56800;52.142;5.364;2023-07-31T00:26:03;5.13;;;2.53;;
69594;SDS011;56800;52.142;5.364;2023-07-31T00:28:29;7.90;;;3.00;;
69594;SDS011;56800;52.142;5.364;2023-07-31T00:30:56;8.70;;;3.40;;
69594;SDS011;56800;52.142;5.364;2023-07-31T00:33:23;10.73;;;4.00;;
69594;SDS011;56800;52.142;5.364;2023-07-31T00:35:50;12.35;;;4.25;;
69594;SDS011;56800;52.142;5.364;2023-07-31T00:38:16;13.82;;;4.80;;
69594;SDS011;56800;52.142;5.364;2023-07-31T00:40:43;13.98;;;4.47;;
69594;SDS011;56800;52.142;5.364;2023-07-31T00:43:10;19.25;;;5.15;;
69594;SDS011;56800;52.142;5.364;2023-07-31T00:45:36;21.10;;;5.03;;
69594;SDS011;56800;52.142;5.364;2023-07-31T00:48:04;26.13;;;6.13;;
69594;SDS011;56800;52.142;5.364;2023-07-31T00:50:32;23.42;;;6.15;;
69594;SDS011;56800;52.142;5.364;2023-07-31T00:52:59;36.03;;;6.63;;
69594;SDS011;56800;52.142;5.364;2023-07-31T00:55:26;40.17;;;7.05;;
69594;SDS011;56800;52.142;5.364;2023-07-31T00:57:53;45.07;;;6.53;;
69594;SDS011;56800;52.142;5.364;2023-07-31T01:00:21;24.85;;;5.95;;
69594;SDS011;56800;52.142;5.364;2023-07-31T01:02:49;32.28;;;7.38;;
69594;SDS011;56800;52.142;5.364;2023-07-31T01:05:20;29.08;;;6.47;;
69594;SDS011;56800;52.142;5.364;2023-07-31T01:08:06;31.45;;;8.30;;
69594;SDS011;56800;52.142;5.364;2023-07-31T01:10:45;33.63;;;7.70;;
69594;SDS011;56800;52.142;5.364;2023-07-31T01:13:17;39.55;;;6.20;;
69594;SDS011;56800;52.142;5.364;2023-07-31T01:15:44;26.98;;;5.15;;
69594;SDS011;56800;52.142;5.364;2023-07-31T01:18:11;15.32;;;4.00;;
69594;SDS011;56800;52.142;5.364;2023-07-31T01:20:38;14.77;;;4.47;;
69594;SDS011;56800;52.142;5.364;2023-07-31T01:26:19;13.02;;;4.05;;
69594;SDS011;56800;52.142;5.364;2023-07-31T01:31:21;12.48;;;3.88;;
69594;SDS011;56800;52.142;5.364;2023-07-31T01:33:50;13.15;;;3.35;;
69594;SDS011;56800;52.142;5.364;2023-07-31T01:36:20;9.63;;;3.43;;
69594;SDS011;56800;52.142;5.364;2023-07-31T01:38:48;9.23;;;3.70;;
69594;SDS011;56800;52.142;5.364;2023-07-31T01:41:16;9.82;;;3.78;;
69594;SDS011;56800;52.142;5.364;2023-07-31T01:43:44;8.82;;;3.00;;
69594;SDS011;56800;52.142;5.364;2023-07-31T01:46:14;23.50;;;4.80;;
69594;SDS011;56800;52.142;5.364;2023-07-31T01:48:41;23.83;;;5.30;;
69594;SDS011;56800;52.142;5.364;2023-07-31T01:51:07;32.78;;;6.70;;
69594;SDS011;56800;52.142;5.364;2023-07-31T01:53:34;31.95;;;6.75;;
69594;SDS011;56800;52.142;5.364;2023-07-31T01:56:01;28.20;;;7.35;;
69594;SDS011;56800;52.142;5.364;2023-07-31T01:58:28;28.35;;;6.88;;
69594;SDS011;56800;52.142;5.364;2023-07-31T02:00:54;24.90;;;7.77;;
69594;SDS011;56800;52.142;5.364;2023-07-31T02:03:21;31.40;;;7.28;;
69594;SDS011;56800;52.142;5.364;2023-07-31T02:05:48;28.23;;;7.20;;
69594;SDS011;56800;52.142;5.364;2023-07-31T02:08:16;25.08;;;6.80;;
69594;SDS011;56800;52.142;5.364;2023-07-31T02:10:43;22.00;;;6.22;;
69594;SDS011;56800;52.142;5.364;2023-07-31T02:13:09;30.13;;;6.53;;
69594;SDS011;56800;52.142;5.364;2023-07-31T02:15:37;27.38;;;6.80;;
69594;SDS011;56800;52.142;5.364;2023-07-31T02:18:04;29.15;;;6.38;;
69594;SDS011;56800;52.142;5.364;2023-07-31T02:20:33;24.73;;;6.20;;
69594;SDS011;56800;52.142;5.364;2023-07-31T02:23:01;28.70;;;6.47;;
69594;SDS011;56800;52.142;5.364;2023-07-31T02:25:28;26.40;;;6.23;;
69594;SDS011;56800;52.142;5.364;2023-07-31T02:27:55;24.38;;;6.88;;
69594;SDS011;56800;52.142;5.364;2023-07-31T02:30:22;25.17;;;6.32;;
69594;SDS011;56800;52.142;5.364;2023-07-31T02:32:49;24.40;;;6.40;;
69594;SDS011;56800;52.142;5.364;2023-07-31T02:35:16;25.63;;;6.53;;
69594;SDS011;56800;52.142;5.364;2023-07-31T02:37:44;23.13;;;5.83;;
69594;SDS011;56800;52.142;5.364;2023-07-31T02:40:11;26.70;;;6.97;;
69594;SDS011;56800;52.142;5.364;2023-07-31T02:42:38;28.48;;;6.70;;
69594;SDS011;56800;52.142;5.364;2023-07-31T02:45:05;23.30;;;6.07;;
69594;SDS011;56800;52.142;5.364;2023-07-31T02:47:32;26.50;;;6.35;;
69594;SDS011;56800;52.142;5.364;2023-07-31T02:49:59;24.87;;;5.97;;
69594;SDS011;56800;52.142;5.364;2023-07-31T02:52:26;27.63;;;6.88;;
69594;SDS011;56800;52.142;5.364;2023-07-31T02:54:53;25.92;;;7.28;;
69594;SDS011;56800;52.142;5.364;2023-07-31T02:57:19;31.70;;;6.57;;
69594;SDS011;56800;52.142;5.364;2023-07-31T02:59:46;25.55;;;6.60;;
69594;SDS011;56800;52.142;5.364;2023-07-31T03:02:13;26.00;;;7.30;;
69594;SDS011;56800;52.142;5.364;2023-07-31T03:04:40;29.25;;;7.05;;
69594;SDS011;56800;52.142;5.364;2023-07-31T03:07:07;35.00;;;7.05;;
69594;SDS011;56800;52.142;5.364;2023-07-31T03:09:33;27.70;;;7.20;;
69594;SDS011;56800;52.142;5.364;2023-07-31T03:12:00;28.17;;;6.80;;
69594;SDS011;56800;52.142;5.364;2023-07-31T03:14:27;32.30;;;7.10;;
69594;SDS011;56800;52.142;5.364;2023-07-31T03:16:53;28.25;;;7.30;;
69594;SDS011;56800;52.142;5.364;2023-07-31T03:19:20;25.17;;;7.18;;
69594;SDS011;56800;52.142;5.364;2023-07-31T03:21:47;30.65;;;7.15;;
69594;SDS011;56800;52.142;5.364;2023-07-31T03:24:14;30.10;;;7.25;;
69594;SDS011;56800;52.142;5.364;2023-07-31T03:26:40;36.53;;;7.80;;
69594;SDS011;56800;52.142;5.364;2023-07-31T03:29:10;28.02;;;7.70;;
69594;SDS011;56800;52.142;5.364;2023-07-31T03:31:37;28.13;;;8.20;;
69594;SDS011;56800;52.142;5.364;2023-07-31T03:34:03;33.33;;;8.05;;
69594;SDS011;56800;52.142;5.364;2023-07-31T03:36:30;43.55;;;8.00;;
69594;SDS011;56800;52.142;5.364;2023-07-31T03:38:57;26.23;;;8.03;;
69594;SDS011;56800;52.142;5.364;2023-07-31T03:41:24;31.98;;;8.25;;
69594;SDS011;56800;52.142;5.364;2023-07-31T03:43:51;37.92;;;9.07;;
69594;SDS011;56800;52.142;5.364;2023-07-31T03:46:18;30.30;;;8.32;;
69594;SDS011;56800;52.142;5.364;2023-07-31T03:48:45;31.88;;;9.05;;
69594;SDS011;56800;52.142;5.364;2023-07-31T03:51:12;30.27;;;7.30;;
69594;SDS011;56800;52.142;5.364;2023-07-31T03:53:38;27.60;;;7.88;;
69594;SDS011;56800;52.142;5.364;2023-07-31T03:56:05;31.42;;;8.02;;
69594;SDS011;56800;52.142;5.364;2023-07-31T03:58:32;29.85;;;8.07;;
69594;SDS011;56800;52.142;5.364;2023-07-31T04:00:59;31.42;;;8.80;;
69594;SDS011;56800;52.142;5.364;2023-07-31T04:03:25;22.17;;;7.37;;
69594;SDS011;56800;52.142;5.364;2023-07-31T04:05:53;26.25;;;7.60;;
69594;SDS011;56800;52.142;5.364;2023-07-31T04:08:22;31.98;;;8.60;;
69594;SDS011;56800;52.142;5.364;2023-07-31T04:10:49;26.52;;;8.13;;
69594;SDS011;56800;52.142;5.364;2023-07-31T04:13:16;28.25;;;8.05;;
69594;SDS011;56800;52.142;5.364;2023-07-31T04:15:47;29.53;;;8.40;;
69594;SDS011;56800;52.142;5.364;2023-07-31T04:18:16;29.60;;;7.93;;
69594;SDS011;56800;52.142;5.364;2023-07-31T04:20:42;43.33;;;8.80;;
69594;SDS011;56800;52.142;5.364;2023-07-31T04:23:09;26.85;;;8.20;;
69594;SDS011;56800;52.142;5.364;2023-07-31T04:25:36;29.13;;;8.15;;
69594;SDS011;56800;52.142;5.364;2023-07-31T04:28:03;26.03;;;7.87;;
69594;SDS011;56800;52.142;5.364;2023-07-31T04:30:30;32.75;;;8.65;;
69594;SDS011;56800;52.142;5.364;2023-07-31T04:32:56;27.77;;;7.65;;
69594;SDS011;56800;52.142;5.364;2023-07-31T04:35:23;27.98;;;7.45;;
69594;SDS011;56800;52.142;5.364;2023-07-31T04:37:50;27.10;;;8.32;;
69594;SDS011;56800;52.142;5.364;2023-07-31T04:40:17;27.57;;;7.53;;
69594;SDS011;56800;52.142;5.364;2023-07-31T04:42:43;29.00;;;7.88;;
69594;SDS011;56800;52.142;5.364;2023-07-31T04:45:10;24.02;;;6.90;;
69594;SDS011;56800;52.142;5.364;2023-07-31T04:47:37;24.80;;;7.00;;
69594;SDS011;56800;52.142;5.364;2023-07-31T04:50:03;24.13;;;7.00;;
69594;SDS011;56800;52.142;5.364;2023-07-31T04:52:31;24.00;;;6.97;;
69594;SDS011;56800;52.142;5.364;2023-07-31T04:54:57;20.83;;;6.80;;
69594;SDS011;56800;52.142;5.364;2023-07-31T04:57:24;25.85;;;7.50;;
69594;SDS011;56800;52.142;5.364;2023-07-31T04:59:51;28.02;;;7.43;;
69594;SDS011;56800;52.142;5.364;2023-07-31T05:02:17;23.20;;;7.40;;
69594;SDS011;56800;52.142;5.364;2023-07-31T05:04:44;22.57;;;6.60;;
69594;SDS011;56800;52.142;5.364;2023-07-31T05:07:11;23.38;;;6.82;;
69594;SDS011;56800;52.142;5.364;2023-07-31T05:09:38;18.80;;;6.38;;
69594;SDS011;56800;52.142;5.364;2023-07-31T05:12:06;25.20;;;6.50;;
69594;SDS011;56800;52.142;5.364;2023-07-31T05:14:33;23.23;;;6.47;;
69594;SDS011;56800;52.142;5.364;2023-07-31T05:16:59;18.17;;;5.80;;
69594;SDS011;56800;52.142;5.364;2023-07-31T05:19:26;23.00;;;6.30;;
69594;SDS011;56800;52.142;5.364;2023-07-31T05:21:53;16.67;;;6.03;;
69594;SDS011;56800;52.142;5.364;2023-07-31T05:24:19;16.92;;;6.07;;
69594;SDS011;56800;52.142;5.364;2023-07-31T05:26:46;15.20;;;5.10;;
69594;SDS011;56800;52.142;5.364;2023-07-31T05:29:12;17.60;;;5.13;;
69594;SDS011;56800;52.142;5.364;2023-07-31T05:31:39;22.85;;;6.25;;
69594;SDS011;56800;52.142;5.364;2023-07-31T05:34:06;23.25;;;6.55;;
69594;SDS011;56800;52.142;5.364;2023-07-31T05:36:33;16.95;;;4.93;;
69594;SDS011;56800;52.142;5.364;2023-07-31T05:38:59;13.48;;;5.07;;
69594;SDS011;56800;52.142;5.364;2023-07-31T05:41:26;14.20;;;4.40;;
69594;SDS011;56800;52.142;5.364;2023-07-31T05:43:53;15.60;;;4.53;;
69594;SDS011;56800;52.142;5.364;2023-07-31T05:46:19;10.30;;;4.50;;
69594;SDS011;56800;52.142;5.364;2023-07-31T05:48:46;9.43;;;3.78;;
69594;SDS011;56800;52.142;5.364;2023-07-31T05:51:13;11.65;;;4.55;;
69594;SDS011;56800;52.142;5.364;2023-07-31T05:53:39;10.37;;;4.30;;
69594;SDS011;56800;52.142;5.364;2023-07-31T05:56:07;8.68;;;4.00;;
69594;SDS011;56800;52.142;5.364;2023-07-31T05:58:34;11.52;;;4.80;;
69594;SDS011;56800;52.142;5.364;2023-07-31T06:01:00;9.73;;;4.35;;
69594;SDS011;56800;52.142;5.364;2023-07-31T06:03:27;12.98;;;4.63;;
69594;SDS011;56800;52.142;5.364;2023-07-31T06:05:54;13.70;;;5.10;;
69594;SDS011;56800;52.142;5.364;2023-07-31T06:08:21;15.07;;;5.80;;
69594;SDS011;56800;52.142;5.364;2023-07-31T06:10:47;13.35;;;5.65;;
69594;SDS011;56800;52.142;5.364;2023-07-31T06:13:14;13.73;;;4.93;;
69594;SDS011;56800;52.142;5.364;2023-07-31T06:15:41;17.17;;;5.40;;
69594;SDS011;56800;52.142;5.364;2023-07-31T06:18:08;14.27;;;5.67;;
69594;SDS011;56800;52.142;5.364;2023-07-31T06:20:34;17.90;;;5.65;;
69594;SDS011;56800;52.142;5.364;2023-07-31T06:23:01;19.15;;;5.40;;
69594;SDS011;56800;52.142;5.364;2023-07-31T06:25:29;13.85;;;5.40;;
69594;SDS011;56800;52.142;5.364;2023-07-31T06:27:56;21.52;;;5.20;;
69594;SDS011;56800;52.142;5.364;2023-07-31T06:30:23;11.57;;;4.77;;
69594;SDS011;56800;52.142;5.364;2023-07-31T06:32:50;19.70;;;5.32;;
69594;SDS011;56800;52.142;5.364;2023-07-31T06:35:17;16.00;;;4.97;;
69594;SDS011;56800;52.142;5.364;2023-07-31T06:37:43;11.43;;;4.50;;
69594;SDS011;56800;52.142;5.364;2023-07-31T06:40:10;9.80;;;4.00;;
69594;SDS011;56800;52.142;5.364;2023-07-31T06:42:37;22.60;;;4.30;;
69594;SDS011;56800;52.142;5.364;2023-07-31T06:45:04;12.43;;;4.05;;
69594;SDS011;56800;52.142;5.364;2023-07-31T06:47:32;10.88;;;4.93;;
69594;SDS011;56800;52.142;5.364;2023-07-31T06:49:59;11.77;;;4.15;;
69594;SDS011;56800;52.142;5.364;2023-07-31T06:52:26;11.52;;;4.00;;
69594;SDS011;56800;52.142;5.364;2023-07-31T06:55:02;9.40;;;4.30;;
69594;SDS011;56800;52.142;5.364;2023-07-31T06:57:41;12.18;;;4.00;;
69594;SDS011;56800;52.142;5.364;2023-07-31T07:00:09;10.45;;;4.13;;
69594;SDS011;56800;52.142;5.364;2023-07-31T07:02:36;8.70;;;4.00;;
69594;SDS011;56800;52.142;5.364;2023-07-31T07:05:02;13.70;;;3.90;;
69594;SDS011;56800;52.142;5.364;2023-07-31T07:07:29;9.80;;;3.60;;
69594;SDS011;56800;52.142;5.364;2023-07-31T07:09:56;9.73;;;3.95;;
69594;SDS011;56800;52.142;5.364;2023-07-31T07:12:23;10.00;;;3.90;;
69594;SDS011;56800;52.142;5.364;2023-07-31T07:14:50;8.32;;;3.53;;
69594;SDS011;56800;52.142;5.364;2023-07-31T07:17:19;11.00;;;4.00;;
69594;SDS011;56800;52.142;5.364;2023-07-31T07:19:45;8.43;;;3.20;;
69594;SDS011;56800;52.142;5.364;2023-07-31T07:22:14;9.52;;;4.10;;
69594;SDS011;56800;52.142;5.364;2023-07-31T07:24:41;5.95;;;3.63;;
69594;SDS011;56800;52.142;5.364;2023-07-31T07:27:08;9.30;;;3.70;;
69594;SDS011;56800;52.142;5.364;2023-07-31T07:29:35;10.32;;;3.80;;
69594;SDS011;56800;52.142;5.364;2023-07-31T07:32:01;10.37;;;3.63;;
69594;SDS011;56800;52.142;5.364;2023-07-31T07:34:28;7.78;;;3.30;;
69594;SDS011;56800;52.142;5.364;2023-07-31T07:36:55;8.30;;;3.55;;
69594;SDS011;56800;52.142;5.364;2023-07-31T07:39:22;8.80;;;3.53;;
69594;SDS011;56800;52.142;5.364;2023-07-31T07:41:49;11.98;;;3.80;;
69594;SDS011;56800;52.142;5.364;2023-07-31T07:44:15;7.70;;;3.27;;
69594;SDS011;56800;52.142;5.364;2023-07-31T07:46:43;7.72;;;3.10;;
69594;SDS011;56800;52.142;5.364;2023-07-31T07:49:09;6.32;;;3.17;;
69594;SDS011;56800;52.142;5.364;2023-07-31T07:51:36;7.40;;;3.17;;
69594;SDS011;56800;52.142;5.364;2023-07-31T07:54:03;7.25;;;3.20;;
69594;SDS011;56800;52.142;5.364;2023-07-31T07:56:30;8.03;;;2.90;;
69594;SDS011;56800;52.142;5.364;2023-07-31T07:58:57;8.57;;;3.60;;
69594;SDS011;56800;52.142;5.364;2023-07-31T08:01:24;5.00;;;3.28;;
69594;SDS011;56800;52.142;5.364;2023-07-31T08:03:50;7.10;;;3.08;;
69594;SDS011;56800;52.142;5.364;2023-07-31T08:06:17;9.75;;;3.42;;
69594;SDS011;56800;52.142;5.364;2023-07-31T08:08:44;5.43;;;2.97;;
69594;SDS011;56800;52.142;5.364;2023-07-31T08:11:10;7.35;;;3.00;;
69594;SDS011;56800;52.142;5.364;2023-07-31T08:13:37;5.97;;;2.97;;
69594;SDS011;56800;52.142;5.364;2023-07-31T08:16:04;5.07;;;2.97;;
69594;SDS011;56800;52.142;5.364;2023-07-31T08:18:31;5.80;;;2.67;;
69594;SDS011;56800;52.142;5.364;2023-07-31T08:20:59;8.57;;;2.30;;
69594;SDS011;56800;52.142;5.364;2023-07-31T08:23:25;8.27;;;2.70;;
69594;SDS011;56800;52.142;5.364;2023-07-31T08:25:52;4.40;;;2.70;;
69594;SDS011;56800;52.142;5.364;2023-07-31T08:28:19;8.55;;;2.58;;
69594;SDS011;56800;52.142;5.364;2023-07-31T08:30:46;8.45;;;2.75;;
69594;SDS011;56800;52.142;5.364;2023-07-31T08:33:13;5.17;;;2.70;;
69594;SDS011;56800;52.142;5.364;2023-07-31T08:35:39;5.35;;;2.60;;
69594;SDS011;56800;52.142;5.364;2023-07-31T08:38:06;7.55;;;2.47;;
69594;SDS011;56800;52.142;5.364;2023-07-31T08:40:35;6.82;;;2.47;;
69594;SDS011;56800;52.142;5.364;2023-07-31T08:43:04;3.95;;;2.38;;
69594;SDS011;56800;52.142;5.364;2023-07-31T08:45:31;4.30;;;2.00;;
69594;SDS011;56800;52.142;5.364;2023-07-31T08:47:59;3.95;;;2.00;;
69594;SDS011;56800;52.142;5.364;2023-07-31T08:50:26;4.80;;;2.28;;
69594;SDS011;56800;52.142;5.364;2023-07-31T08:52:54;4.30;;;1.83;;
69594;SDS011;56800;52.142;5.364;2023-07-31T08:55:23;4.07;;;2.05;;
69594;SDS011;56800;52.142;5.364;2023-07-31T08:57:52;4.17;;;1.97;;
69594;SDS011;56800;52.142;5.364;2023-07-31T09:00:21;4.20;;;2.40;;
69594;SDS011;56800;52.142;5.364;2023-07-31T09:05:22;3.97;;;2.05;;
69594;SDS011;56800;52.142;5.364;2023-07-31T09:07:49;4.05;;;2.40;;
69594;SDS011;56800;52.142;5.364;2023-07-31T09:10:17;5.27;;;2.30;;
69594;SDS011;56800;52.142;5.364;2023-07-31T09:12:44;3.75;;;2.30;;
69594;SDS011;56800;52.142;5.364;2023-07-31T09:15:12;4.80;;;2.53;;
69594;SDS011;56800;52.142;5.364;2023-07-31T09:17:59;4.15;;;2.33;;
69594;SDS011;56800;52.142;5.364;2023-07-31T09:20:27;4.70;;;2.40;;
69594;SDS011;56800;52.142;5.364;2023-07-31T09:22:54;5.87;;;2.50;;
69594;SDS011;56800;52.142;5.364;2023-07-31T09:25:23;6.63;;;3.10;;
69594;SDS011;56800;52.142;5.364;2023-07-31T09:27:54;4.85;;;2.40;;
69594;SDS011;56800;52.142;5.364;2023-07-31T09:30:28;4.75;;;2.33;;
69594;SDS011;56800;52.142;5.364;2023-07-31T09:33:05;8.23;;;2.75;;
69594;SDS011;56800;52.142;5.364;2023-07-31T09:35:33;4.87;;;2.67;;
69594;SDS011;56800;52.142;5.364;2023-07-31T09:38:05;4.03;;;2.67;;
69594;SDS011;56800;52.142;5.364;2023-07-31T09:40:33;4.10;;;2.75;;
69594;SDS011;56800;52.142;5.364;2023-07-31T09:43:02;4.18;;;2.90;;
69594;SDS011;56800;52.142;5.364;2023-07-31T09:45:33;4.50;;;2.88;;
69594;SDS011;56800;52.142;5.364;2023-07-31T09:48:07;4.80;;;2.50;;
69594;SDS011;56800;52.142;5.364;2023-07-31T09:50:36;4.57;;;3.00;;
69594;SDS011;56800;52.142;5.364;2023-07-31T09:53:08;4.10;;;3.25;;
69594;SDS011;56800;52.142;5.364;2023-07-31T09:55:35;4.53;;;3.33;;
69594;SDS011;56800;52.142;5.364;2023-07-31T09:58:03;6.43;;;3.22;;
69594;SDS011;56800;52.142;5.364;2023-07-31T10:00:32;5.83;;;2.90;;
69594;SDS011;56800;52.142;5.364;2023-07-31T10:03:00;4.35;;;3.20;;
69594;SDS011;56800;52.142;5.364;2023-07-31T10:05:35;5.32;;;2.97;;
69594;SDS011;56800;52.142;5.364;2023-07-31T10:08:16;5.30;;;2.90;;
69594;SDS011;56800;52.142;5.364;2023-07-31T10:10:46;3.70;;;2.53;;
69594;SDS011;56800;52.142;5.364;2023-07-31T10:13:13;5.17;;;2.77;;
69594;SDS011;56800;52.142;5.364;2023-07-31T10:15:40;5.28;;;3.25;;
69594;SDS011;56800;52.142;5.364;2023-07-31T10:18:09;4.10;;;3.15;;
69594;SDS011;56800;52.142;5.364;2023-07-31T10:20:37;5.72;;;3.45;;
69594;SDS011;56800;52.142;5.364;2023-07-31T10:23:04;6.15;;;3.72;;
69594;SDS011;56800;52.142;5.364;2023-07-31T10:25:32;6.77;;;4.00;;
69594;SDS011;56800;52.142;5.364;2023-07-31T10:28:00;5.70;;;3.97;;
69594;SDS011;56800;52.142;5.364;2023-07-31T10:30:28;6.05;;;4.60;;
69594;SDS011;56800;52.142;5.364;2023-07-31T10:32:57;5.03;;;3.63;;
69594;SDS011;56800;52.142;5.364;2023-07-31T10:35:25;7.47;;;4.82;;
69594;SDS011;56800;52.142;5.364;2023-07-31T10:37:52;11.27;;;5.03;;
69594;SDS011;56800;52.142;5.364;2023-07-31T10:40:20;7.30;;;4.68;;
69594;SDS011;56800;52.142;5.364;2023-07-31T10:42:52;7.03;;;4.60;;
69594;SDS011;56800;52.142;5.364;2023-07-31T10:45:24;7.72;;;4.65;;
69594;SDS011;56800;52.142;5.364;2023-07-31T10:48:00;7.40;;;5.15;;
69594;SDS011;56800;52.142;5.364;2023-07-31T10:50:29;10.20;;;5.50;;
69594;SDS011;56800;52.142;5.364;2023-07-31T10:52:59;8.20;;;4.78;;
69594;SDS011;56800;52.142;5.364;2023-07-31T10:55:33;5.75;;;4.45;;
69594;SDS011;56800;52.142;5.364;2023-07-31T10:58:10;8.63;;;4.82;;
69594;SDS011;56800;52.142;5.364;2023-07-31T11:00:39;7.57;;;4.68;;
69594;SDS011;56800;52.142;5.364;2023-07-31T11:03:08;6.90;;;4.70;;
69594;SDS011;56800;52.142;5.364;2023-07-31T11:08:24;9.13;;;4.72;;
69594;SDS011;56800;52.142;5.364;2023-07-31T11:16:09;8.30;;;3.93;;
69594;SDS011;56800;52.142;5.364;2023-07-31T11:18:38;5.72;;;3.50;;
69594;SDS011;56800;52.142;5.364;2023-07-31T11:21:07;6.25;;;3.45;;
69594;SDS011;56800;52.142;5.364;2023-07-31T11:23:45;4.35;;;3.33;;
69594;SDS011;56800;52.142;5.364;2023-07-31T11:26:13;6.95;;;3.35;;
69594;SDS011;56800;52.142;5.364;2023-07-31T11:28:41;4.57;;;3.10;;
69594;SDS011;56800;52.142;5.364;2023-07-31T11:31:09;5.15;;;3.22;;
69594;SDS011;56800;52.142;5.364;2023-07-31T11:33:37;4.78;;;2.85;;
69594;SDS011;56800;52.142;5.364;2023-07-31T11:36:04;5.10;;;3.20;;
69594;SDS011;56800;52.142;5.364;2023-07-31T11:38:31;6.40;;;3.15;;
69594;SDS011;56800;52.142;5.364;2023-07-31T11:41:02;6.07;;;2.60;;
69594;SDS011;56800;52.142;5.364;2023-07-31T11:43:33;4.55;;;2.30;;
69594;SDS011;56800;52.142;5.364;2023-07-31T11:46:00;6.25;;;2.83;;
69594;SDS011;56800;52.142;5.364;2023-07-31T11:48:32;6.03;;;2.70;;
69594;SDS011;56800;52.142;5.364;2023-07-31T11:51:06;5.50;;;3.10;;
69594;SDS011;56800;52.142;5.364;2023-07-31T11:53:38;7.03;;;3.37;;
69594;SDS011;56800;52.142;5.364;2023-07-31T11:56:10;5.30;;;3.50;;
69594;SDS011;56800;52.142;5.364;2023-07-31T11:58:39;6.45;;;3.55;;
69594;SDS011;56800;52.142;5.364;2023-07-31T12:01:07;5.75;;;3.97;;
69594;SDS011;56800;52.142;5.364;2023-07-31T12:03:34;8.50;;;4.20;;
69594;SDS011;56800;52.142;5.364;2023-07-31T12:06:02;8.23;;;4.43;;
69594;SDS011;56800;52.142;5.364;2023-07-31T12:08:29;8.73;;;4.30;;
69594;SDS011;56800;52.142;5.364;2023-07-31T12:11:01;6.68;;;4.25;;
69594;SDS011;56800;52.142;5.364;2023-07-31T12:13:30;7.45;;;4.70;;
69594;SDS011;56800;52.142;5.364;2023-07-31T12:15:58;6.78;;;4.43;;
69594;SDS011;56800;52.142;5.364;2023-07-31T12:18:28;8.03;;;4.83;;
69594;SDS011;56800;52.142;5.364;2023-07-31T12:20:57;9.32;;;4.65;;
69594;SDS011;56800;52.142;5.364;2023-07-31T12:23:28;6.43;;;4.57;;
69594;SDS011;56800;52.142;5.364;2023-07-31T12:26:21;8.25;;;4.18;;
69594;SDS011;56800;52.142;5.364;2023-07-31T12:28:47;4.65;;;3.60;;
69594;SDS011;56800;52.142;5.364;2023-07-31T12:33:46;5.53;;;3.85;;
69594;SDS011;56800;52.142;5.364;2023-07-31T12:36:16;6.53;;;3.38;;
69594;SDS011;56800;52.142;5.364;2023-07-31T12:38:44;4.82;;;3.55;;
69594;SDS011;56800;52.142;5.364;2023-07-31T12:41:11;6.35;;;3.80;;
69594;SDS011;56800;52.142;5.364;2023-07-31T12:43:39;4.83;;;3.57;;
69594;SDS011;56800;52.142;5.364;2023-07-31T12:46:07;5.72;;;3.60;;
69594;SDS011;56800;52.142;5.364;2023-07-31T12:48:34;5.72;;;4.20;;
69594;SDS011;56800;52.142;5.364;2023-07-31T12:51:02;6.38;;;4.40;;
69594;SDS011;56800;52.142;5.364;2023-07-31T12:53:29;5.97;;;3.75;;
69594;SDS011;56800;52.142;5.364;2023-07-31T12:55:56;6.07;;;3.90;;
69594;SDS011;56800;52.142;5.364;2023-07-31T12:58:23;6.63;;;4.22;;
69594;SDS011;56800;52.142;5.364;2023-07-31T13:00:50;4.57;;;3.88;;
69594;SDS011;56800;52.142;5.364;2023-07-31T13:03:17;7.00;;;3.92;;
69594;SDS011;56800;52.142;5.364;2023-07-31T13:05:44;6.22;;;4.53;;
69594;SDS011;56800;52.142;5.364;2023-07-31T13:08:10;6.07;;;4.27;;
69594;SDS011;56800;52.142;5.364;2023-07-31T13:10:38;6.30;;;3.92;;
69594;SDS011;56800;52.142;5.364;2023-07-31T13:13:05;6.90;;;4.50;;
69594;SDS011;56800;52.142;5.364;2023-07-31T13:15:32;9.43;;;4.35;;
69594;SDS011;56800;52.142;5.364;2023-07-31T13:17:58;4.78;;;3.95;;
69594;SDS011;56800;52.142;5.364;2023-07-31T13:20:26;5.67;;;3.57;;
69594;SDS011;56800;52.142;5.364;2023-07-31T13:22:52;7.18;;;4.40;;
69594;SDS011;56800;52.142;5.364;2023-07-31T13:25:19;6.45;;;4.82;;
69594;SDS011;56800;52.142;5.364;2023-07-31T13:27:46;5.57;;;4.45;;
69594;SDS011;56800;52.142;5.364;2023-07-31T13:30:13;6.68;;;3.78;;
69594;SDS011;56800;52.142;5.364;2023-07-31T13:32:39;7.10;;;4.37;;
69594;SDS011;56800;52.142;5.364;2023-07-31T13:35:07;6.85;;;3.90;;
69594;SDS011;56800;52.142;5.364;2023-07-31T13:37:35;5.68;;;3.30;;
69594;SDS011;56800;52.142;5.364;2023-07-31T13:40:02;5.43;;;3.35;;
69594;SDS011;56800;52.142;5.364;2023-07-31T13:42:31;5.25;;;3.60;;
69594;SDS011;56800;52.142;5.364;2023-07-31T13:44:59;8.57;;;3.10;;
69594;SDS011;56800;52.142;5.364;2023-07-31T13:47:27;4.00;;;3.05;;
69594;SDS011;56800;52.142;5.364;2023-07-31T13:49:54;3.50;;;2.20;;
69594;SDS011;56800;52.142;5.364;2023-07-31T13:52:21;3.33;;;2.17;;
69594;SDS011;56800;52.142;5.364;2023-07-31T13:54:48;4.93;;;2.30;;
69594;SDS011;56800;52.142;5.364;2023-07-31T13:57:15;3.13;;;1.87;;
69594;SDS011;56800;52.142;5.364;2023-07-31T13:59:42;5.28;;;1.98;;
69594;SDS011;56800;52.142;5.364;2023-07-31T14:02:08;6.38;;;2.65;;
69594;SDS011;56800;52.142;5.364;2023-07-31T14:04:35;4.03;;;2.17;;
69594;SDS011;56800;52.142;5.364;2023-07-31T14:07:02;4.65;;;2.45;;
69594;SDS011;56800;52.142;5.364;2023-07-31T14:09:30;4.03;;;2.07;;
69594;SDS011;56800;52.142;5.364;2023-07-31T14:11:57;2.97;;;1.85;;
69594;SDS011;56800;52.142;5.364;2023-07-31T14:14:24;5.18;;;2.75;;
69594;SDS011;56800;52.142;5.364;2023-07-31T14:16:50;4.38;;;2.42;;
69594;SDS011;56800;52.142;5.364;2023-07-31T14:19:17;3.95;;;3.00;;
69594;SDS011;56800;52.142;5.364;2023-07-31T14:21:44;6.70;;;3.20;;
69594;SDS011;56800;52.142;5.364;2023-07-31T14:24:26;5.88;;;2.92;;
69594;SDS011;56800;52.142;5.364;2023-07-31T14:26:52;5.63;;;3.05;;
69594;SDS011;56800;52.142;5.364;2023-07-31T14:29:19;5.00;;;3.38;;
69594;SDS011;56800;52.142;5.364;2023-07-31T14:31:46;6.13;;;4.43;;
69594;SDS011;56800;52.142;5.364;2023-07-31T14:34:13;5.93;;;4.83;;
69594;SDS011;56800;52.142;5.364;2023-07-31T14:36:39;6.88;;;5.35;;
69594;SDS011;56800;52.142;5.364;2023-07-31T14:39:07;8.52;;;6.35;;
69594;SDS011;56800;52.142;5.364;2023-07-31T14:41:33;10.18;;;6.40;;
69594;SDS011;56800;52.142;5.364;2023-07-31T14:44:00;10.35;;;6.38;;
69594;SDS011;56800;52.142;5.364;2023-07-31T14:46:27;7.43;;;6.43;;
69594;SDS011;56800;52.142;5.364;2023-07-31T14:48:53;9.48;;;6.63;;
69594;SDS011;56800;52.142;5.364;2023-07-31T14:51:20;9.73;;;7.00;;
69594;SDS011;56800;52.142;5.364;2023-07-31T14:53:47;10.07;;;6.90;;
69594;SDS011;56800;52.142;5.364;2023-07-31T14:56:14;9.82;;;7.13;;
69594;SDS011;56800;52.142;5.364;2023-07-31T14:58:40;9.10;;;7.20;;
69594;SDS011;56800;52.142;5.364;2023-07-31T15:01:07;7.30;;;6.40;;
69594;SDS011;56800;52.142;5.364;2023-07-31T15:03:34;6.80;;;5.40;;